Lake Panorama, Iowa
Current Conditions -  °F | °C
As of 9:55 PM on Thursday 18 Dec 2014 (Local Time) from KPRO Reporting Station
Overcast Overcast  
Wind Chill: 24°   Ceiling: 3100
Heat Index: 29°   Visibility: 10mi
Dew Point: 25°   Wind: 5mph
Humidity: 85%   Direction: 110°ESE
Pressure: 30.25"   Gusts: NA
Location:  41.6992°N, 94.332°W
Report Text: KPRO 190355Z AUTO 11004KT 10SM SCT013 OVC031 M02/M04 A3025 RMK AO2 T10181040 410151071
Loading
Personal Weather Stations






























Interactive Weather Map New forecast layout! Learn more

10-Day Weather Forecast

Advertisements
Track Severe Weather on mobile